createdAt,value
2022-07-30T00:03:21.739Z,100.00
2022-07-30T00:10:27.851Z,100.00
2022-07-30T00:13:14.652Z,100.00
2022-07-30T00:15:43.860Z,100.00
2022-07-30T00:18:31.585Z,100.00
2022-07-30T00:21:56.141Z,100.00
2022-07-30T00:28:07.038Z,100.00
2022-07-30T00:30:55.042Z,100.00
2022-07-30T00:34:20.110Z,100.00
2022-07-30T00:37:07.567Z,100.00
2022-07-30T00:40:13.211Z,100.00
2022-07-30T00:43:00.425Z,100.00
2022-07-30T00:45:48.271Z,100.00
2022-07-30T00:48:17.506Z,100.00
2022-07-30T00:51:05.015Z,100.00
2022-07-30T00:53:34.066Z,100.00
2022-07-30T00:56:21.671Z,100.00
2022-07-30T01:02:15.223Z,100.00
2022-07-30T01:08:07.601Z,100.00
2022-07-30T01:11:13.527Z,100.00
2022-07-30T01:13:48.540Z,100.00
2022-07-30T01:16:35.842Z,100.00
2022-07-30T01:19:52.353Z,100.00
2022-07-30T01:22:41.312Z,100.00
2022-07-30T01:25:48.671Z,100.00
2022-07-30T01:28:57.137Z,100.00
2022-07-30T01:40:49.604Z,100.00
2022-07-30T01:43:21.019Z,100.00
2022-07-30T01:46:08.921Z,100.00
2022-07-30T01:49:00.698Z,100.00
2022-07-30T01:55:22.122Z,100.00
2022-07-30T01:58:29.335Z,100.00
2022-07-30T02:01:16.749Z,100.00
2022-07-30T02:04:40.994Z,100.00
2022-07-30T02:10:49.737Z,100.00
2022-07-30T02:13:59.590Z,100.00
2022-07-30T02:16:50.722Z,100.00
2022-07-30T02:19:21.867Z,100.00
2022-07-30T02:23:06.131Z,100.00
2022-07-30T02:25:57.003Z,100.00
2022-07-30T02:29:04.908Z,100.00
2022-07-30T02:37:53.243Z,100.00
2022-07-30T02:40:45.942Z,100.00
2022-07-30T02:43:51.233Z,100.00
2022-07-30T02:46:41.851Z,100.00
2022-07-30T02:50:08.851Z,100.00
2022-07-30T02:52:40.198Z,100.00
2022-07-30T03:01:46.566Z,100.00
2022-07-30T03:04:18.716Z,100.00
2022-07-30T03:07:08.550Z,100.00
2022-07-30T03:10:15.145Z,100.00
2022-07-30T03:13:20.626Z,100.00
2022-07-30T03:25:38.774Z,100.00
2022-07-30T03:31:55.594Z,100.00
2022-07-30T03:37:58.199Z,100.00
2022-07-30T03:41:06.162Z,100.00
2022-07-30T03:43:56.798Z,100.00
2022-07-30T03:47:09.847Z,100.00
2022-07-30T03:59:16.947Z,100.00
2022-07-30T04:02:07.606Z,100.00
2022-07-30T04:05:10.970Z,100.00
2022-07-30T04:07:45.065Z,100.00
2022-07-30T04:17:20.066Z,100.00
2022-07-30T04:20:17.960Z,100.00
2022-07-30T04:26:37.751Z,100.00
2022-07-30T04:32:55.360Z,100.00
2022-07-30T04:39:11.255Z,100.00
2022-07-30T04:42:19.089Z,100.00
2022-07-30T04:45:16.877Z,100.00
2022-07-30T04:52:17.690Z,100.00
2022-07-30T04:55:10.925Z,100.00
2022-07-30T04:58:02.992Z,100.00
2022-07-30T05:03:46.505Z,100.00
2022-07-30T05:06:20.744Z,100.00
2022-07-30T05:09:30.123Z,100.00
2022-07-30T05:12:39.015Z,100.00
2022-07-30T05:22:06.790Z,100.00
2022-07-30T05:27:49.674Z,100.00
2022-07-30T05:30:57.287Z,100.00
2022-07-30T05:33:49.332Z,100.00
2022-07-30T05:36:42.908Z,100.00
2022-07-30T05:39:19.183Z,100.00
2022-07-30T05:42:12.078Z,100.00
2022-07-30T05:44:48.429Z,100.00
2022-07-30T05:47:37.788Z,100.00
2022-07-30T05:50:30.429Z,100.00
2022-07-30T05:53:20.515Z,100.00
2022-07-30T05:56:51.115Z,100.00
2022-07-30T06:04:04.760Z,100.00
2022-07-30T06:07:13.680Z,100.00
2022-07-30T06:10:04.651Z,100.00
2022-07-30T06:12:37.354Z,100.00
2022-07-30T06:18:02.676Z,100.00
2022-07-30T06:21:30.147Z,100.00
2022-07-30T06:24:40.936Z,100.00
2022-07-30T06:27:37.867Z,100.00
2022-07-30T06:30:31.535Z,100.00
2022-07-30T06:34:33.078Z,100.00
2022-07-30T06:38:06.402Z,100.00
2022-07-30T06:41:28.370Z,100.00
2022-07-30T06:47:33.958Z,100.00
2022-07-30T06:54:07.981Z,100.00
2022-07-30T06:57:20.261Z,100.00
2022-07-30T06:59:56.279Z,100.00
2022-07-30T07:02:39.945Z,100.00
2022-07-30T07:09:32.114Z,100.00
2022-07-30T07:13:22.991Z,100.00
2022-07-30T07:19:04.886Z,100.00
2022-07-30T07:27:38.734Z,100.00
2022-07-30T07:30:46.930Z,100.00
2022-07-30T07:33:19.420Z,100.00
2022-07-30T07:39:53.157Z,100.00
2022-07-30T07:42:25.890Z,100.00
2022-07-30T07:45:52.339Z,100.00
2022-07-30T07:48:58.755Z,100.00
2022-07-30T07:58:17.552Z,100.00
2022-07-30T08:01:15.567Z,100.00
2022-07-30T08:04:24.602Z,100.00
2022-07-30T08:07:23.671Z,99.08
2022-07-30T08:10:16.151Z,98.74
2022-07-30T08:16:46.329Z,81.64
2022-07-30T08:20:07.488Z,81.18
2022-07-30T08:22:39.910Z,81.60
2022-07-30T08:25:48.194Z,73.49
2022-07-30T08:28:35.795Z,74.60
2022-07-30T08:31:28.265Z,67.38
2022-07-30T08:34:00.646Z,67.11
2022-07-30T08:39:42.168Z,68.57
2022-07-30T08:42:16.962Z,66.85
2022-07-30T08:45:34.857Z,65.98
2022-07-30T08:48:27.262Z,61.55
2022-07-30T08:54:28.210Z,54.10
2022-07-30T09:01:56.324Z,60.04
2022-07-30T09:05:04.685Z,59.51
2022-07-30T09:11:04.479Z,58.68
2022-07-30T09:16:48.671Z,57.77
2022-07-30T09:19:23.076Z,56.16
2022-07-30T09:32:55.594Z,54.13
2022-07-30T09:39:58.933Z,52.05
2022-07-30T09:49:20.720Z,54.44
2022-07-30T09:51:57.547Z,56.91
2022-07-30T09:55:23.671Z,77.54
2022-07-30T09:58:01.608Z,100.00
2022-07-30T10:04:08.647Z,100.00
2022-07-30T10:11:08.453Z,100.00
2022-07-30T10:13:59.920Z,100.00
2022-07-30T10:17:09.926Z,100.00
2022-07-30T10:20:02.874Z,100.00
2022-07-30T10:23:18.406Z,100.00
2022-07-30T10:26:13.718Z,100.00
2022-07-30T10:32:33.852Z,100.00
2022-07-30T10:35:43.022Z,100.00
2022-07-30T10:42:40.195Z,100.00
2022-07-30T10:45:43.734Z,100.00
2022-07-30T10:49:12.671Z,100.00
2022-07-30T10:51:54.992Z,100.00
2022-07-30T10:54:47.593Z,100.00
2022-07-30T10:57:32.789Z,100.00
2022-07-30T11:01:23.913Z,100.00
2022-07-30T11:04:25.688Z,100.00
2022-07-30T11:11:20.166Z,100.00
2022-07-30T11:14:12.988Z,100.00
2022-07-30T11:17:21.729Z,99.49
2022-07-30T11:20:22.955Z,95.67
2022-07-30T11:26:48.628Z,99.22
2022-07-30T11:29:50.504Z,100.00
2022-07-30T11:32:42.155Z,99.37
2022-07-30T11:35:55.021Z,99.94
2022-07-30T11:42:31.384Z,95.73
2022-07-30T11:45:33.691Z,100.00
2022-07-30T11:51:57.672Z,100.00
2022-07-30T12:02:15.255Z,100.00
2022-07-30T12:04:48.051Z,100.00
2022-07-30T12:07:26.097Z,100.00
2022-07-30T12:17:19.505Z,100.00
2022-07-30T12:23:21.726Z,100.00
2022-07-30T12:26:13.226Z,100.00
2022-07-30T12:29:02.609Z,100.00
2022-07-30T12:31:38.353Z,100.00
2022-07-30T12:34:24.265Z,100.00
2022-07-30T12:37:32.986Z,100.00
2022-07-30T12:40:41.819Z,100.00
2022-07-30T12:47:25.222Z,100.00
2022-07-30T12:50:16.922Z,100.00
2022-07-30T12:52:53.645Z,100.00
2022-07-30T12:56:04.196Z,100.00
2022-07-30T13:03:12.957Z,100.00
2022-07-30T13:08:58.316Z,85.70
2022-07-30T13:16:15.838Z,90.53
2022-07-30T13:19:30.939Z,94.40
2022-07-30T13:22:22.329Z,98.88
2022-07-30T13:25:38.863Z,99.89
2022-07-30T13:31:43.049Z,91.60
2022-07-30T13:34:34.930Z,92.36
2022-07-30T13:37:07.388Z,91.38
2022-07-30T13:39:59.461Z,89.54
2022-07-30T13:42:49.298Z,86.48
2022-07-30T13:45:39.054Z,88.31
2022-07-30T13:48:11.463Z,79.23
2022-07-30T13:51:01.634Z,76.35
2022-07-30T13:53:53.266Z,72.50
2022-07-30T13:56:25.509Z,78.67
2022-07-30T13:59:17.211Z,75.14
2022-07-30T14:02:24.342Z,77.74
2022-07-30T14:05:31.810Z,84.56
2022-07-30T14:08:05.162Z,73.53
2022-07-30T14:10:54.735Z,71.72
2022-07-30T14:13:44.448Z,73.89
2022-07-30T14:20:01.666Z,79.68
2022-07-30T14:23:45.522Z,78.21
2022-07-30T14:26:17.770Z,78.29
2022-07-30T14:29:43.906Z,82.39
2022-07-30T14:32:37.075Z,83.44
2022-07-30T14:35:27.648Z,84.61
2022-07-30T14:38:00.415Z,76.27
2022-07-30T14:40:50.078Z,75.86
2022-07-30T14:43:40.928Z,66.84
2022-07-30T14:49:39.152Z,63.52
2022-07-30T14:52:29.274Z,60.00
2022-07-30T14:58:26.868Z,67.27
2022-07-30T15:01:52.763Z,61.13
2022-07-30T15:07:15.506Z,64.52
2022-07-30T15:09:48.030Z,65.31
2022-07-30T15:12:38.996Z,57.70
2022-07-30T15:15:14.095Z,59.17
2022-07-30T15:17:47.087Z,68.30
2022-07-30T15:20:19.991Z,74.85
2022-07-30T15:23:13.488Z,80.18
2022-07-30T15:28:53.896Z,83.92
2022-07-30T15:31:44.797Z,86.04
2022-07-30T15:34:35.250Z,87.50
2022-07-30T15:40:15.429Z,92.28
2022-07-30T15:42:48.225Z,93.72
2022-07-30T15:45:56.058Z,97.19
2022-07-30T15:52:32.114Z,100.00
2022-07-30T15:58:30.110Z,100.00
2022-07-30T16:01:37.682Z,100.00
2022-07-30T16:04:44.337Z,100.00
2022-07-30T16:07:56.717Z,100.00
2022-07-30T16:13:53.962Z,100.00
2022-07-30T16:19:33.123Z,100.00
2022-07-30T16:28:55.191Z,100.00
2022-07-30T16:35:13.355Z,100.00
2022-07-30T16:42:03.484Z,100.00
2022-07-30T16:48:02.729Z,100.00
2022-07-30T16:54:37.295Z,100.00
2022-07-30T17:00:53.219Z,100.00
2022-07-30T17:03:42.895Z,100.00
2022-07-30T17:06:51.761Z,100.00
2022-07-30T17:09:59.277Z,100.00
2022-07-30T17:13:23.886Z,100.00
2022-07-30T17:15:56.021Z,100.00
2022-07-30T17:19:21.961Z,100.00
2022-07-30T17:22:11.853Z,100.00
2022-07-30T17:25:04.041Z,100.00
2022-07-30T17:28:11.958Z,100.00
2022-07-30T17:34:30.379Z,100.00
2022-07-30T17:37:38.206Z,100.00
2022-07-30T17:40:45.755Z,100.00
2022-07-30T17:50:25.304Z,100.00
2022-07-30T17:52:57.673Z,100.00
2022-07-30T17:56:05.711Z,100.00
2022-07-30T17:58:40.969Z,100.00
2022-07-30T18:01:31.077Z,100.00
2022-07-30T18:04:21.641Z,100.00
2022-07-30T18:07:29.151Z,100.00
2022-07-30T18:10:36.685Z,100.00
2022-07-30T18:16:52.923Z,100.00
2022-07-30T18:19:59.722Z,100.00
2022-07-30T18:22:51.638Z,100.00
2022-07-30T18:25:51.554Z,100.00
2022-07-30T18:34:22.554Z,100.00
2022-07-30T18:41:12.288Z,100.00
2022-07-30T18:44:37.633Z,100.00
2022-07-30T18:50:18.162Z,100.00
2022-07-30T18:56:17.690Z,100.00
2022-07-30T18:58:49.990Z,100.00
2022-07-30T19:01:56.965Z,100.00
2022-07-30T19:07:58.439Z,100.00
2022-07-30T19:10:31.986Z,100.00
2022-07-30T19:18:45.658Z,100.00
2022-07-30T19:21:17.891Z,100.00
2022-07-30T19:24:07.709Z,100.00
2022-07-30T19:26:40.365Z,100.00
2022-07-30T19:29:47.794Z,100.00
2022-07-30T19:38:34.731Z,100.00
2022-07-30T19:42:01.706Z,100.00
2022-07-30T19:48:01.546Z,100.00
2022-07-30T19:50:35.735Z,100.00
2022-07-30T19:53:09.487Z,100.00
2022-07-30T19:56:37.831Z,100.00
2022-07-30T19:59:45.830Z,100.00
2022-07-30T20:23:13.823Z,100.00
2022-07-30T20:26:19.096Z,100.00
2022-07-30T20:32:14.614Z,100.00
2022-07-30T20:39:02.770Z,100.00
2022-07-30T20:41:35.405Z,100.00
2022-07-30T20:47:34.193Z,100.00
2022-07-30T20:53:16.511Z,100.00
2022-07-30T20:56:24.417Z,100.00
2022-07-30T20:59:11.568Z,100.00
2022-07-30T21:02:18.050Z,100.00
2022-07-30T21:05:18.333Z,100.00
2022-07-30T21:08:07.124Z,100.00
2022-07-30T21:11:00.191Z,100.00
2022-07-30T21:13:46.942Z,100.00
2022-07-30T21:16:55.952Z,100.00
2022-07-30T21:20:01.236Z,100.00
2022-07-30T21:25:41.521Z,100.00
2022-07-30T21:29:19.891Z,100.00
2022-07-30T21:35:13.153Z,100.00
2022-07-30T21:41:40.336Z,100.00
2022-07-30T21:47:33.230Z,100.00
2022-07-30T21:50:57.676Z,100.00
2022-07-30T21:53:46.434Z,100.00
2022-07-30T21:56:34.389Z,100.00
2022-07-30T21:59:03.241Z,100.00
2022-07-30T22:04:38.995Z,100.00
2022-07-30T22:07:29.369Z,100.00
2022-07-30T22:10:53.523Z,100.00
2022-07-30T22:13:51.380Z,100.00
2022-07-30T22:22:58.197Z,100.00
2022-07-30T22:26:04.246Z,100.00
2022-07-30T22:28:52.502Z,100.00
2022-07-30T22:31:23.011Z,100.00
2022-07-30T22:34:11.239Z,100.00
2022-07-30T22:40:27.557Z,100.00
2022-07-30T22:43:51.198Z,100.00
2022-07-30T22:46:38.867Z,100.00
2022-07-30T22:49:51.953Z,100.00
2022-07-30T22:52:23.855Z,100.00
2022-07-30T22:55:31.076Z,100.00
2022-07-30T22:58:19.100Z,100.00
2022-07-30T23:01:11.048Z,100.00
2022-07-30T23:03:42.091Z,100.00
2022-07-30T23:06:13.940Z,100.00
2022-07-30T23:08:43.721Z,100.00
2022-07-30T23:11:37.189Z,100.00
2022-07-30T23:12:16.598Z,100.00
2022-07-30T23:12:28.469Z,100.00
2022-07-30T23:12:28.966Z,100.00
2022-07-30T23:14:26.158Z,100.00
2022-07-30T23:21:00.485Z,100.00
2022-07-30T23:24:24.959Z,100.00
2022-07-30T23:26:53.888Z,100.00
2022-07-30T23:29:40.443Z,100.00
2022-07-30T23:32:28.271Z,100.00
2022-07-30T23:34:57.465Z,100.00
2022-07-30T23:37:48.158Z,100.00
2022-07-30T23:40:36.869Z,100.00
2022-07-30T23:43:05.641Z,100.00
2022-07-30T23:45:52.384Z,100.00
2022-07-30T23:48:58.531Z,100.00
2022-07-30T23:51:45.346Z,100.00
2022-07-30T23:54:14.564Z,100.00
2022-07-30T23:57:01.767Z,100.00
2022-07-30T23:59:50.400Z,100.00
